sensor_id;sensor_type;location;lat;lon;timestamp;P1;durP1;ratioP1;P2;durP2;ratioP2
45970;SDS011;31681;48.982;8.394;2023-06-14T00:02:00;4.82;;;3.75;;
45970;SDS011;31681;48.982;8.394;2023-06-14T00:04:25;7.22;;;4.07;;
45970;SDS011;31681;48.982;8.394;2023-06-14T00:06:50;5.35;;;3.97;;
45970;SDS011;31681;48.982;8.394;2023-06-14T00:09:16;6.32;;;4.05;;
45970;SDS011;31681;48.982;8.394;2023-06-14T00:11:42;7.75;;;4.35;;
45970;SDS011;31681;48.982;8.394;2023-06-14T00:14:08;4.38;;;3.60;;
45970;SDS011;31681;48.982;8.394;2023-06-14T00:16:33;5.70;;;4.18;;
45970;SDS011;31681;48.982;8.394;2023-06-14T00:19:00;7.88;;;3.97;;
45970;SDS011;31681;48.982;8.394;2023-06-14T00:21:29;5.57;;;3.72;;
45970;SDS011;31681;48.982;8.394;2023-06-14T00:23:55;5.93;;;4.15;;
45970;SDS011;31681;48.982;8.394;2023-06-14T00:26:20;5.65;;;3.85;;
45970;SDS011;31681;48.982;8.394;2023-06-14T00:28:48;7.75;;;4.00;;
45970;SDS011;31681;48.982;8.394;2023-06-14T00:31:13;5.03;;;4.00;;
45970;SDS011;31681;48.982;8.394;2023-06-14T00:33:38;4.35;;;3.75;;
45970;SDS011;31681;48.982;8.394;2023-06-14T00:36:04;5.90;;;3.90;;
45970;SDS011;31681;48.982;8.394;2023-06-14T00:38:29;5.53;;;3.88;;
45970;SDS011;31681;48.982;8.394;2023-06-14T00:40:54;5.28;;;3.80;;
45970;SDS011;31681;48.982;8.394;2023-06-14T00:43:19;5.90;;;4.20;;
45970;SDS011;31681;48.982;8.394;2023-06-14T00:45:47;5.95;;;4.28;;
45970;SDS011;31681;48.982;8.394;2023-06-14T00:48:14;6.50;;;4.20;;
45970;SDS011;31681;48.982;8.394;2023-06-14T00:50:42;4.72;;;3.53;;
45970;SDS011;31681;48.982;8.394;2023-06-14T00:53:11;7.95;;;4.20;;
45970;SDS011;31681;48.982;8.394;2023-06-14T00:55:36;7.35;;;3.95;;
45970;SDS011;31681;48.982;8.394;2023-06-14T00:58:05;7.97;;;4.20;;
45970;SDS011;31681;48.982;8.394;2023-06-14T01:00:41;4.70;;;3.90;;
45970;SDS011;31681;48.982;8.394;2023-06-14T01:03:06;5.75;;;4.00;;
45970;SDS011;31681;48.982;8.394;2023-06-14T01:05:42;5.30;;;4.03;;
45970;SDS011;31681;48.982;8.394;2023-06-14T01:15:55;5.35;;;4.22;;
45970;SDS011;31681;48.982;8.394;2023-06-14T01:18:21;4.47;;;3.88;;
45970;SDS011;31681;48.982;8.394;2023-06-14T01:20:51;6.40;;;3.85;;
45970;SDS011;31681;48.982;8.394;2023-06-14T01:23:18;5.82;;;4.32;;
45970;SDS011;31681;48.982;8.394;2023-06-14T01:25:43;5.15;;;4.28;;
45970;SDS011;31681;48.982;8.394;2023-06-14T01:28:12;5.05;;;4.10;;
45970;SDS011;31681;48.982;8.394;2023-06-14T01:30:39;8.27;;;4.45;;
45970;SDS011;31681;48.982;8.394;2023-06-14T01:33:07;4.63;;;4.05;;
45970;SDS011;31681;48.982;8.394;2023-06-14T01:35:33;5.75;;;4.60;;
45970;SDS011;31681;48.982;8.394;2023-06-14T01:38:01;4.72;;;4.10;;
45970;SDS011;31681;48.982;8.394;2023-06-14T01:40:28;6.57;;;4.18;;
45970;SDS011;31681;48.982;8.394;2023-06-14T01:42:55;7.75;;;4.35;;
45970;SDS011;31681;48.982;8.394;2023-06-14T01:45:21;6.32;;;4.18;;
45970;SDS011;31681;48.982;8.394;2023-06-14T01:47:50;5.85;;;4.25;;
45970;SDS011;31681;48.982;8.394;2023-06-14T01:50:18;5.05;;;3.88;;
45970;SDS011;31681;48.982;8.394;2023-06-14T01:52:44;5.43;;;4.10;;
45970;SDS011;31681;48.982;8.394;2023-06-14T01:55:11;7.05;;;4.00;;
45970;SDS011;31681;48.982;8.394;2023-06-14T01:57:37;6.07;;;4.18;;
45970;SDS011;31681;48.982;8.394;2023-06-14T02:00:03;6.95;;;4.10;;
45970;SDS011;31681;48.982;8.394;2023-06-14T02:02:40;6.07;;;3.63;;
45970;SDS011;31681;48.982;8.394;2023-06-14T02:05:06;8.27;;;4.28;;
45970;SDS011;31681;48.982;8.394;2023-06-14T02:07:31;4.82;;;4.10;;
45970;SDS011;31681;48.982;8.394;2023-06-14T02:09:56;6.55;;;3.97;;
45970;SDS011;31681;48.982;8.394;2023-06-14T02:12:25;7.65;;;4.00;;
45970;SDS011;31681;48.982;8.394;2023-06-14T02:14:50;4.78;;;4.03;;
45970;SDS011;31681;48.982;8.394;2023-06-14T02:17:16;5.70;;;4.05;;
45970;SDS011;31681;48.982;8.394;2023-06-14T02:19:42;8.15;;;4.82;;
45970;SDS011;31681;48.982;8.394;2023-06-14T02:22:08;4.93;;;4.00;;
45970;SDS011;31681;48.982;8.394;2023-06-14T02:24:35;5.90;;;4.45;;
45970;SDS011;31681;48.982;8.394;2023-06-14T02:27:24;6.18;;;3.83;;
45970;SDS011;31681;48.982;8.394;2023-06-14T02:29:49;6.28;;;3.92;;
45970;SDS011;31681;48.982;8.394;2023-06-14T02:32:22;4.45;;;3.88;;
45970;SDS011;31681;48.982;8.394;2023-06-14T02:34:48;5.32;;;3.95;;
45970;SDS011;31681;48.982;8.394;2023-06-14T02:37:15;5.28;;;3.80;;
45970;SDS011;31681;48.982;8.394;2023-06-14T02:39:41;4.40;;;4.00;;
45970;SDS011;31681;48.982;8.394;2023-06-14T02:42:06;5.75;;;4.40;;
45970;SDS011;31681;48.982;8.394;2023-06-14T02:44:31;6.45;;;3.90;;
45970;SDS011;31681;48.982;8.394;2023-06-14T02:47:04;6.05;;;4.03;;
45970;SDS011;31681;48.982;8.394;2023-06-14T02:49:32;6.95;;;4.13;;
45970;SDS011;31681;48.982;8.394;2023-06-14T02:51:57;4.75;;;3.92;;
45970;SDS011;31681;48.982;8.394;2023-06-14T02:54:25;7.07;;;4.32;;
45970;SDS011;31681;48.982;8.394;2023-06-14T02:56:50;6.63;;;4.45;;
45970;SDS011;31681;48.982;8.394;2023-06-14T02:59:23;7.35;;;4.10;;
45970;SDS011;31681;48.982;8.394;2023-06-14T03:01:52;5.75;;;4.13;;
45970;SDS011;31681;48.982;8.394;2023-06-14T03:04:20;5.45;;;4.25;;
45970;SDS011;31681;48.982;8.394;2023-06-14T03:06:46;6.40;;;3.88;;
45970;SDS011;31681;48.982;8.394;2023-06-14T03:09:16;5.40;;;4.38;;
45970;SDS011;31681;48.982;8.394;2023-06-14T03:11:41;4.22;;;3.83;;
45970;SDS011;31681;48.982;8.394;2023-06-14T03:14:07;5.82;;;4.40;;
45970;SDS011;31681;48.982;8.394;2023-06-14T03:16:34;6.80;;;3.80;;
45970;SDS011;31681;48.982;8.394;2023-06-14T03:19:00;5.20;;;4.20;;
45970;SDS011;31681;48.982;8.394;2023-06-14T03:21:28;5.70;;;4.50;;
45970;SDS011;31681;48.982;8.394;2023-06-14T03:23:59;8.60;;;4.10;;
45970;SDS011;31681;48.982;8.394;2023-06-14T03:26:27;5.97;;;4.32;;
45970;SDS011;31681;48.982;8.394;2023-06-14T03:28:55;6.25;;;4.43;;
45970;SDS011;31681;48.982;8.394;2023-06-14T03:31:21;5.50;;;4.07;;
45970;SDS011;31681;48.982;8.394;2023-06-14T03:33:47;8.93;;;4.55;;
45970;SDS011;31681;48.982;8.394;2023-06-14T03:36:20;5.93;;;4.40;;
45970;SDS011;31681;48.982;8.394;2023-06-14T03:38:51;5.60;;;4.15;;
45970;SDS011;31681;48.982;8.394;2023-06-14T03:41:16;5.93;;;4.50;;
45970;SDS011;31681;48.982;8.394;2023-06-14T03:43:42;5.75;;;4.50;;
45970;SDS011;31681;48.982;8.394;2023-06-14T03:46:08;7.43;;;4.25;;
45970;SDS011;31681;48.982;8.394;2023-06-14T03:48:34;7.82;;;4.40;;
45970;SDS011;31681;48.982;8.394;2023-06-14T03:51:07;8.00;;;4.75;;
45970;SDS011;31681;48.982;8.394;2023-06-14T03:53:33;5.18;;;4.68;;
45970;SDS011;31681;48.982;8.394;2023-06-14T03:56:00;7.18;;;4.95;;
45970;SDS011;31681;48.982;8.394;2023-06-14T03:58:32;7.57;;;4.38;;
45970;SDS011;31681;48.982;8.394;2023-06-14T04:00:58;6.05;;;4.40;;
45970;SDS011;31681;48.982;8.394;2023-06-14T04:03:24;5.70;;;4.60;;
45970;SDS011;31681;48.982;8.394;2023-06-14T04:05:50;6.60;;;4.45;;
45970;SDS011;31681;48.982;8.394;2023-06-14T04:08:18;6.75;;;4.65;;
45970;SDS011;31681;48.982;8.394;2023-06-14T04:10:44;6.22;;;4.28;;
45970;SDS011;31681;48.982;8.394;2023-06-14T04:13:13;5.90;;;4.53;;
45970;SDS011;31681;48.982;8.394;2023-06-14T04:15:45;5.28;;;4.45;;
45970;SDS011;31681;48.982;8.394;2023-06-14T04:18:14;5.55;;;4.95;;
45970;SDS011;31681;48.982;8.394;2023-06-14T04:20:42;8.60;;;4.70;;
45970;SDS011;31681;48.982;8.394;2023-06-14T04:23:17;7.10;;;4.95;;
45970;SDS011;31681;48.982;8.394;2023-06-14T04:25:47;5.38;;;4.40;;
45970;SDS011;31681;48.982;8.394;2023-06-14T04:28:15;7.40;;;4.45;;
45970;SDS011;31681;48.982;8.394;2023-06-14T04:30:41;5.38;;;4.88;;
45970;SDS011;31681;48.982;8.394;2023-06-14T04:33:07;5.90;;;4.93;;
45970;SDS011;31681;48.982;8.394;2023-06-14T04:35:33;5.72;;;4.70;;
45970;SDS011;31681;48.982;8.394;2023-06-14T04:38:01;5.95;;;4.85;;
45970;SDS011;31681;48.982;8.394;2023-06-14T04:40:27;7.88;;;4.97;;
45970;SDS011;31681;48.982;8.394;2023-06-14T04:42:52;7.57;;;4.45;;
45970;SDS011;31681;48.982;8.394;2023-06-14T04:45:18;8.65;;;4.10;;
45970;SDS011;31681;48.982;8.394;2023-06-14T04:47:45;5.18;;;4.68;;
45970;SDS011;31681;48.982;8.394;2023-06-14T04:50:11;5.20;;;4.68;;
45970;SDS011;31681;48.982;8.394;2023-06-14T04:52:38;7.00;;;4.65;;
45970;SDS011;31681;48.982;8.394;2023-06-14T04:55:06;8.10;;;4.65;;
45970;SDS011;31681;48.982;8.394;2023-06-14T04:57:32;6.88;;;4.93;;
45970;SDS011;31681;48.982;8.394;2023-06-14T04:59:58;6.10;;;4.95;;
45970;SDS011;31681;48.982;8.394;2023-06-14T05:02:26;5.70;;;4.63;;
45970;SDS011;31681;48.982;8.394;2023-06-14T05:04:59;7.22;;;5.35;;
45970;SDS011;31681;48.982;8.394;2023-06-14T05:07:26;5.50;;;4.82;;
45970;SDS011;31681;48.982;8.394;2023-06-14T05:09:52;9.38;;;6.18;;
45970;SDS011;31681;48.982;8.394;2023-06-14T05:12:17;8.25;;;5.25;;
45970;SDS011;31681;48.982;8.394;2023-06-14T05:14:44;7.30;;;5.45;;
45970;SDS011;31681;48.982;8.394;2023-06-14T05:17:17;8.05;;;5.30;;
45970;SDS011;31681;48.982;8.394;2023-06-14T05:19:42;7.68;;;5.35;;
45970;SDS011;31681;48.982;8.394;2023-06-14T05:22:08;11.93;;;5.05;;
45970;SDS011;31681;48.982;8.394;2023-06-14T05:24:33;8.73;;;4.60;;
45970;SDS011;31681;48.982;8.394;2023-06-14T05:27:01;6.55;;;5.25;;
45970;SDS011;31681;48.982;8.394;2023-06-14T05:29:26;7.18;;;4.80;;
45970;SDS011;31681;48.982;8.394;2023-06-14T05:31:52;7.35;;;4.70;;
45970;SDS011;31681;48.982;8.394;2023-06-14T05:34:17;8.30;;;5.15;;
45970;SDS011;31681;48.982;8.394;2023-06-14T05:36:45;7.43;;;4.95;;
45970;SDS011;31681;48.982;8.394;2023-06-14T05:39:10;8.10;;;5.60;;
45970;SDS011;31681;48.982;8.394;2023-06-14T05:41:36;6.00;;;5.00;;
45970;SDS011;31681;48.982;8.394;2023-06-14T05:44:01;8.02;;;5.32;;
45970;SDS011;31681;48.982;8.394;2023-06-14T05:46:34;7.50;;;5.07;;
45970;SDS011;31681;48.982;8.394;2023-06-14T05:48:59;5.95;;;5.07;;
45970;SDS011;31681;48.982;8.394;2023-06-14T05:51:24;7.40;;;5.45;;
45970;SDS011;31681;48.982;8.394;2023-06-14T05:53:50;5.85;;;5.20;;
45970;SDS011;31681;48.982;8.394;2023-06-14T05:56:15;7.35;;;5.28;;
45970;SDS011;31681;48.982;8.394;2023-06-14T05:58:43;9.52;;;5.60;;
45970;SDS011;31681;48.982;8.394;2023-06-14T06:01:08;8.57;;;5.43;;
45970;SDS011;31681;48.982;8.394;2023-06-14T06:03:33;6.47;;;5.35;;
45970;SDS011;31681;48.982;8.394;2023-06-14T06:05:59;6.03;;;5.05;;
45970;SDS011;31681;48.982;8.394;2023-06-14T06:08:34;9.80;;;5.18;;
45970;SDS011;31681;48.982;8.394;2023-06-14T06:11:00;7.78;;;4.93;;
45970;SDS011;31681;48.982;8.394;2023-06-14T06:13:26;6.45;;;5.60;;
45970;SDS011;31681;48.982;8.394;2023-06-14T06:15:51;6.78;;;5.15;;
45970;SDS011;31681;48.982;8.394;2023-06-14T06:18:19;6.85;;;5.35;;
45970;SDS011;31681;48.982;8.394;2023-06-14T06:20:44;7.75;;;5.45;;
45970;SDS011;31681;48.982;8.394;2023-06-14T06:23:12;8.43;;;5.28;;
45970;SDS011;31681;48.982;8.394;2023-06-14T06:25:37;8.10;;;4.82;;
45970;SDS011;31681;48.982;8.394;2023-06-14T06:28:05;14.15;;;5.93;;
45970;SDS011;31681;48.982;8.394;2023-06-14T06:30:42;6.70;;;5.20;;
45970;SDS011;31681;48.982;8.394;2023-06-14T06:33:10;7.40;;;4.85;;
45970;SDS011;31681;48.982;8.394;2023-06-14T06:35:36;10.55;;;5.07;;
45970;SDS011;31681;48.982;8.394;2023-06-14T06:38:02;8.52;;;5.30;;
45970;SDS011;31681;48.982;8.394;2023-06-14T06:40:27;8.35;;;5.25;;
45970;SDS011;31681;48.982;8.394;2023-06-14T06:42:55;6.40;;;5.32;;
45970;SDS011;31681;48.982;8.394;2023-06-14T06:45:20;6.75;;;4.95;;
45970;SDS011;31681;48.982;8.394;2023-06-14T06:47:46;7.32;;;5.50;;
45970;SDS011;31681;48.982;8.394;2023-06-14T06:50:11;7.15;;;4.85;;
45970;SDS011;31681;48.982;8.394;2023-06-14T06:52:41;6.28;;;5.13;;
45970;SDS011;31681;48.982;8.394;2023-06-14T06:55:07;6.72;;;4.93;;
45970;SDS011;31681;48.982;8.394;2023-06-14T06:57:33;6.60;;;5.20;;
45970;SDS011;31681;48.982;8.394;2023-06-14T06:59:59;7.07;;;5.05;;
45970;SDS011;31681;48.982;8.394;2023-06-14T07:02:24;5.97;;;5.28;;
45970;SDS011;31681;48.982;8.394;2023-06-14T07:04:49;8.38;;;5.20;;
45970;SDS011;31681;48.982;8.394;2023-06-14T07:07:15;7.80;;;5.30;;
45970;SDS011;31681;48.982;8.394;2023-06-14T07:09:40;8.13;;;5.20;;
45970;SDS011;31681;48.982;8.394;2023-06-14T07:12:07;6.65;;;5.40;;
45970;SDS011;31681;48.982;8.394;2023-06-14T07:14:32;6.15;;;5.35;;
45970;SDS011;31681;48.982;8.394;2023-06-14T07:16:58;9.18;;;5.40;;
45970;SDS011;31681;48.982;8.394;2023-06-14T07:19:23;5.95;;;4.78;;
45970;SDS011;31681;48.982;8.394;2023-06-14T07:21:48;8.07;;;6.03;;
45970;SDS011;31681;48.982;8.394;2023-06-14T07:24:14;8.27;;;5.43;;
45970;SDS011;31681;48.982;8.394;2023-06-14T07:26:40;5.72;;;4.88;;
45970;SDS011;31681;48.982;8.394;2023-06-14T07:29:05;7.03;;;5.10;;
45970;SDS011;31681;48.982;8.394;2023-06-14T07:31:30;7.03;;;6.07;;
45970;SDS011;31681;48.982;8.394;2023-06-14T07:33:56;5.80;;;5.20;;
45970;SDS011;31681;48.982;8.394;2023-06-14T07:36:21;8.63;;;5.25;;
45970;SDS011;31681;48.982;8.394;2023-06-14T07:38:47;6.10;;;5.40;;
45970;SDS011;31681;48.982;8.394;2023-06-14T07:41:12;6.93;;;5.32;;
45970;SDS011;31681;48.982;8.394;2023-06-14T07:43:37;10.50;;;4.75;;
45970;SDS011;31681;48.982;8.394;2023-06-14T07:46:07;9.02;;;5.00;;
45970;SDS011;31681;48.982;8.394;2023-06-14T07:48:34;6.03;;;5.10;;
45970;SDS011;31681;48.982;8.394;2023-06-14T07:50:59;9.35;;;4.82;;
45970;SDS011;31681;48.982;8.394;2023-06-14T07:53:26;7.00;;;4.60;;
45970;SDS011;31681;48.982;8.394;2023-06-14T07:55:51;6.93;;;4.95;;
45970;SDS011;31681;48.982;8.394;2023-06-14T07:58:16;8.98;;;5.35;;
45970;SDS011;31681;48.982;8.394;2023-06-14T08:00:42;5.97;;;4.32;;
45970;SDS011;31681;48.982;8.394;2023-06-14T08:03:07;6.38;;;4.57;;
45970;SDS011;31681;48.982;8.394;2023-06-14T08:05:35;10.38;;;5.13;;
45970;SDS011;31681;48.982;8.394;2023-06-14T08:08:10;11.75;;;4.93;;
45970;SDS011;31681;48.982;8.394;2023-06-14T08:10:54;6.13;;;4.38;;
45970;SDS011;31681;48.982;8.394;2023-06-14T08:13:20;9.77;;;5.00;;
45970;SDS011;31681;48.982;8.394;2023-06-14T08:15:52;6.93;;;4.95;;
45970;SDS011;31681;48.982;8.394;2023-06-14T08:18:18;4.68;;;4.28;;
45970;SDS011;31681;48.982;8.394;2023-06-14T08:20:43;6.30;;;4.90;;
45970;SDS011;31681;48.982;8.394;2023-06-14T08:23:08;7.45;;;4.75;;
45970;SDS011;31681;48.982;8.394;2023-06-14T08:25:34;6.57;;;4.40;;
45970;SDS011;31681;48.982;8.394;2023-06-14T08:27:59;5.20;;;3.95;;
45970;SDS011;31681;48.982;8.394;2023-06-14T08:30:25;6.90;;;4.68;;
45970;SDS011;31681;48.982;8.394;2023-06-14T08:32:51;5.25;;;4.45;;
45970;SDS011;31681;48.982;8.394;2023-06-14T08:35:19;5.53;;;4.40;;
45970;SDS011;31681;48.982;8.394;2023-06-14T08:37:44;7.95;;;4.97;;
45970;SDS011;31681;48.982;8.394;2023-06-14T08:40:22;7.53;;;4.55;;
45970;SDS011;31681;48.982;8.394;2023-06-14T08:42:50;7.07;;;4.55;;
45970;SDS011;31681;48.982;8.394;2023-06-14T08:45:16;8.63;;;4.38;;
45970;SDS011;31681;48.982;8.394;2023-06-14T08:47:41;5.22;;;4.30;;
45970;SDS011;31681;48.982;8.394;2023-06-14T08:50:07;7.68;;;4.45;;
45970;SDS011;31681;48.982;8.394;2023-06-14T08:52:33;7.07;;;4.65;;
45970;SDS011;31681;48.982;8.394;2023-06-14T08:55:05;6.57;;;4.43;;
45970;SDS011;31681;48.982;8.394;2023-06-14T08:57:31;7.32;;;5.00;;
45970;SDS011;31681;48.982;8.394;2023-06-14T08:59:58;6.15;;;4.50;;
45970;SDS011;31681;48.982;8.394;2023-06-14T09:02:26;6.47;;;4.13;;
45970;SDS011;31681;48.982;8.394;2023-06-14T09:04:54;6.57;;;4.10;;
45970;SDS011;31681;48.982;8.394;2023-06-14T09:07:27;6.15;;;4.13;;
45970;SDS011;31681;48.982;8.394;2023-06-14T09:10:10;4.63;;;3.97;;
45970;SDS011;31681;48.982;8.394;2023-06-14T09:12:36;4.78;;;4.28;;
45970;SDS011;31681;48.982;8.394;2023-06-14T09:15:02;6.07;;;4.18;;
45970;SDS011;31681;48.982;8.394;2023-06-14T09:17:32;5.40;;;4.18;;
45970;SDS011;31681;48.982;8.394;2023-06-14T09:19:58;6.63;;;4.28;;
45970;SDS011;31681;48.982;8.394;2023-06-14T09:22:23;6.53;;;4.22;;
45970;SDS011;31681;48.982;8.394;2023-06-14T09:24:50;7.15;;;4.20;;
45970;SDS011;31681;48.982;8.394;2023-06-14T09:27:17;5.57;;;4.05;;
45970;SDS011;31681;48.982;8.394;2023-06-14T09:29:43;6.32;;;3.95;;
45970;SDS011;31681;48.982;8.394;2023-06-14T09:32:09;6.18;;;3.78;;
45970;SDS011;31681;48.982;8.394;2023-06-14T09:34:34;8.38;;;4.30;;
45970;SDS011;31681;48.982;8.394;2023-06-14T09:37:00;7.68;;;4.30;;
45970;SDS011;31681;48.982;8.394;2023-06-14T09:39:25;6.18;;;4.45;;
45970;SDS011;31681;48.982;8.394;2023-06-14T09:41:52;6.38;;;4.25;;
45970;SDS011;31681;48.982;8.394;2023-06-14T09:44:20;7.25;;;4.43;;
45970;SDS011;31681;48.982;8.394;2023-06-14T09:46:46;5.85;;;4.05;;
45970;SDS011;31681;48.982;8.394;2023-06-14T09:49:15;4.53;;;4.13;;
45970;SDS011;31681;48.982;8.394;2023-06-14T09:51:45;7.20;;;4.00;;
45970;SDS011;31681;48.982;8.394;2023-06-14T09:54:12;4.78;;;4.10;;
45970;SDS011;31681;48.982;8.394;2023-06-14T09:56:47;7.72;;;3.83;;
45970;SDS011;31681;48.982;8.394;2023-06-14T09:59:12;4.45;;;3.78;;
45970;SDS011;31681;48.982;8.394;2023-06-14T10:01:42;4.75;;;3.80;;
45970;SDS011;31681;48.982;8.394;2023-06-14T10:04:07;4.35;;;3.88;;
45970;SDS011;31681;48.982;8.394;2023-06-14T10:06:38;6.75;;;3.97;;
45970;SDS011;31681;48.982;8.394;2023-06-14T10:09:04;9.20;;;3.80;;
45970;SDS011;31681;48.982;8.394;2023-06-14T10:11:32;7.05;;;3.83;;
45970;SDS011;31681;48.982;8.394;2023-06-14T10:13:57;7.30;;;4.22;;
45970;SDS011;31681;48.982;8.394;2023-06-14T10:16:34;4.10;;;3.70;;
45970;SDS011;31681;48.982;8.394;2023-06-14T10:19:04;6.25;;;3.85;;
45970;SDS011;31681;48.982;8.394;2023-06-14T10:21:43;6.63;;;4.38;;
45970;SDS011;31681;48.982;8.394;2023-06-14T10:24:12;4.97;;;3.97;;
45970;SDS011;31681;48.982;8.394;2023-06-14T10:26:49;7.45;;;4.10;;
45970;SDS011;31681;48.982;8.394;2023-06-14T10:29:15;5.40;;;3.95;;
45970;SDS011;31681;48.982;8.394;2023-06-14T10:31:44;4.60;;;3.90;;
45970;SDS011;31681;48.982;8.394;2023-06-14T10:34:10;4.32;;;3.75;;
45970;SDS011;31681;48.982;8.394;2023-06-14T10:36:41;4.18;;;3.53;;
45970;SDS011;31681;48.982;8.394;2023-06-14T10:39:17;4.95;;;3.72;;
45970;SDS011;31681;48.982;8.394;2023-06-14T10:41:50;6.55;;;4.05;;
45970;SDS011;31681;48.982;8.394;2023-06-14T10:46:47;5.18;;;4.18;;
45970;SDS011;31681;48.982;8.394;2023-06-14T10:49:15;4.97;;;3.88;;
45970;SDS011;31681;48.982;8.394;2023-06-14T10:51:44;4.80;;;3.70;;
45970;SDS011;31681;48.982;8.394;2023-06-14T10:54:20;6.13;;;3.63;;
45970;SDS011;31681;48.982;8.394;2023-06-14T10:56:46;5.10;;;3.78;;
45970;SDS011;31681;48.982;8.394;2023-06-14T10:59:14;6.07;;;4.60;;
45970;SDS011;31681;48.982;8.394;2023-06-14T11:04:17;4.90;;;4.40;;
45970;SDS011;31681;48.982;8.394;2023-06-14T11:06:48;6.00;;;3.50;;
45970;SDS011;31681;48.982;8.394;2023-06-14T11:09:36;6.88;;;4.10;;
45970;SDS011;31681;48.982;8.394;2023-06-14T11:12:07;5.10;;;3.95;;
45970;SDS011;31681;48.982;8.394;2023-06-14T11:14:35;4.57;;;3.97;;
45970;SDS011;31681;48.982;8.394;2023-06-14T11:17:00;5.68;;;4.18;;
45970;SDS011;31681;48.982;8.394;2023-06-14T11:19:25;11.63;;;4.15;;
45970;SDS011;31681;48.982;8.394;2023-06-14T11:21:53;6.50;;;4.13;;
45970;SDS011;31681;48.982;8.394;2023-06-14T11:24:19;6.63;;;4.00;;
45970;SDS011;31681;48.982;8.394;2023-06-14T11:26:46;5.20;;;3.55;;
45970;SDS011;31681;48.982;8.394;2023-06-14T11:29:11;6.45;;;3.47;;
45970;SDS011;31681;48.982;8.394;2023-06-14T11:31:37;5.47;;;4.20;;
45970;SDS011;31681;48.982;8.394;2023-06-14T11:34:02;13.10;;;4.40;;
45970;SDS011;31681;48.982;8.394;2023-06-14T11:36:30;5.20;;;4.22;;
45970;SDS011;31681;48.982;8.394;2023-06-14T11:38:59;7.32;;;4.13;;
45970;SDS011;31681;48.982;8.394;2023-06-14T11:41:25;7.95;;;4.35;;
45970;SDS011;31681;48.982;8.394;2023-06-14T11:43:52;7.90;;;4.13;;
45970;SDS011;31681;48.982;8.394;2023-06-14T11:46:17;5.25;;;4.63;;
45970;SDS011;31681;48.982;8.394;2023-06-14T11:48:47;6.93;;;4.30;;
45970;SDS011;31681;48.982;8.394;2023-06-14T11:51:12;5.00;;;4.20;;
45970;SDS011;31681;48.982;8.394;2023-06-14T11:53:37;8.63;;;4.80;;
45970;SDS011;31681;48.982;8.394;2023-06-14T11:56:03;5.18;;;4.68;;
45970;SDS011;31681;48.982;8.394;2023-06-14T11:58:29;7.20;;;4.22;;
45970;SDS011;31681;48.982;8.394;2023-06-14T12:00:54;6.05;;;4.90;;
45970;SDS011;31681;48.982;8.394;2023-06-14T12:03:23;6.32;;;4.95;;
45970;SDS011;31681;48.982;8.394;2023-06-14T12:05:50;6.15;;;5.20;;
45970;SDS011;31681;48.982;8.394;2023-06-14T12:08:16;8.88;;;5.03;;
45970;SDS011;31681;48.982;8.394;2023-06-14T12:10:42;5.10;;;4.70;;
45970;SDS011;31681;48.982;8.394;2023-06-14T12:13:10;8.60;;;4.85;;
45970;SDS011;31681;48.982;8.394;2023-06-14T12:15:36;7.47;;;4.93;;
45970;SDS011;31681;48.982;8.394;2023-06-14T12:18:01;6.55;;;4.57;;
45970;SDS011;31681;48.982;8.394;2023-06-14T12:20:34;6.10;;;4.45;;
45970;SDS011;31681;48.982;8.394;2023-06-14T12:23:02;5.35;;;4.47;;
45970;SDS011;31681;48.982;8.394;2023-06-14T12:25:35;6.20;;;4.50;;
45970;SDS011;31681;48.982;8.394;2023-06-14T12:28:05;5.80;;;4.82;;
45970;SDS011;31681;48.982;8.394;2023-06-14T12:30:31;4.97;;;4.35;;
45970;SDS011;31681;48.982;8.394;2023-06-14T12:32:56;5.85;;;4.53;;
45970;SDS011;31681;48.982;8.394;2023-06-14T12:35:26;5.55;;;4.32;;
45970;SDS011;31681;48.982;8.394;2023-06-14T12:37:59;6.25;;;4.30;;
45970;SDS011;31681;48.982;8.394;2023-06-14T12:40:32;8.80;;;4.05;;
45970;SDS011;31681;48.982;8.394;2023-06-14T12:42:58;4.97;;;4.40;;
45970;SDS011;31681;48.982;8.394;2023-06-14T12:45:23;5.65;;;3.83;;
45970;SDS011;31681;48.982;8.394;2023-06-14T12:47:48;5.43;;;4.18;;
45970;SDS011;31681;48.982;8.394;2023-06-14T12:50:16;5.25;;;3.60;;
45970;SDS011;31681;48.982;8.394;2023-06-14T12:53:01;4.72;;;3.42;;
45970;SDS011;31681;48.982;8.394;2023-06-14T12:55:27;6.35;;;3.90;;
45970;SDS011;31681;48.982;8.394;2023-06-14T12:57:52;9.93;;;3.85;;
45970;SDS011;31681;48.982;8.394;2023-06-14T13:00:17;7.35;;;3.75;;
45970;SDS011;31681;48.982;8.394;2023-06-14T13:02:43;9.70;;;4.10;;
45970;SDS011;31681;48.982;8.394;2023-06-14T13:05:09;5.55;;;4.45;;
45970;SDS011;31681;48.982;8.394;2023-06-14T13:07:37;7.30;;;3.95;;
45970;SDS011;31681;48.982;8.394;2023-06-14T13:10:05;4.25;;;3.85;;
45970;SDS011;31681;48.982;8.394;2023-06-14T13:12:30;5.72;;;4.07;;
45970;SDS011;31681;48.982;8.394;2023-06-14T13:14:55;5.60;;;4.35;;
45970;SDS011;31681;48.982;8.394;2023-06-14T13:17:23;5.60;;;4.22;;
45970;SDS011;31681;48.982;8.394;2023-06-14T13:19:51;6.30;;;3.70;;
45970;SDS011;31681;48.982;8.394;2023-06-14T13:22:16;4.57;;;3.92;;
45970;SDS011;31681;48.982;8.394;2023-06-14T13:24:42;5.30;;;3.88;;
45970;SDS011;31681;48.982;8.394;2023-06-14T13:27:07;4.78;;;4.10;;
45970;SDS011;31681;48.982;8.394;2023-06-14T13:29:33;6.55;;;4.10;;
45970;SDS011;31681;48.982;8.394;2023-06-14T13:32:00;4.45;;;3.60;;
45970;SDS011;31681;48.982;8.394;2023-06-14T13:34:26;4.88;;;3.72;;
45970;SDS011;31681;48.982;8.394;2023-06-14T13:36:54;6.35;;;4.45;;
45970;SDS011;31681;48.982;8.394;2023-06-14T13:39:26;6.13;;;3.63;;
45970;SDS011;31681;48.982;8.394;2023-06-14T13:41:52;6.97;;;3.85;;
45970;SDS011;31681;48.982;8.394;2023-06-14T13:44:17;4.63;;;4.20;;
45970;SDS011;31681;48.982;8.394;2023-06-14T13:46:46;4.30;;;3.90;;
45970;SDS011;31681;48.982;8.394;2023-06-14T13:49:11;6.00;;;3.55;;
45970;SDS011;31681;48.982;8.394;2023-06-14T13:51:41;3.78;;;3.47;;
45970;SDS011;31681;48.982;8.394;2023-06-14T13:54:27;5.70;;;3.55;;
45970;SDS011;31681;48.982;8.394;2023-06-14T13:56:53;7.53;;;4.00;;
45970;SDS011;31681;48.982;8.394;2023-06-14T13:59:20;5.43;;;3.50;;
45970;SDS011;31681;48.982;8.394;2023-06-14T14:01:46;5.13;;;3.55;;
45970;SDS011;31681;48.982;8.394;2023-06-14T14:04:12;5.72;;;3.80;;
45970;SDS011;31681;48.982;8.394;2023-06-14T14:06:37;7.80;;;3.92;;
45970;SDS011;31681;48.982;8.394;2023-06-14T14:09:03;4.30;;;3.35;;
45970;SDS011;31681;48.982;8.394;2023-06-14T14:11:28;6.13;;;3.50;;
45970;SDS011;31681;48.982;8.394;2023-06-14T14:13:54;5.45;;;3.50;;
45970;SDS011;31681;48.982;8.394;2023-06-14T14:16:19;5.90;;;3.67;;
45970;SDS011;31681;48.982;8.394;2023-06-14T14:18:45;6.70;;;3.58;;
45970;SDS011;31681;48.982;8.394;2023-06-14T14:21:10;6.18;;;3.47;;
45970;SDS011;31681;48.982;8.394;2023-06-14T14:23:36;6.07;;;3.60;;
45970;SDS011;31681;48.982;8.394;2023-06-14T14:26:01;6.38;;;3.70;;
45970;SDS011;31681;48.982;8.394;2023-06-14T14:28:29;6.95;;;3.60;;
45970;SDS011;31681;48.982;8.394;2023-06-14T14:30:54;4.00;;;3.20;;
45970;SDS011;31681;48.982;8.394;2023-06-14T14:33:20;6.22;;;3.60;;
45970;SDS011;31681;48.982;8.394;2023-06-14T14:35:45;3.58;;;3.15;;
45970;SDS011;31681;48.982;8.394;2023-06-14T14:38:14;5.13;;;3.70;;
45970;SDS011;31681;48.982;8.394;2023-06-14T14:40:40;8.95;;;3.70;;
45970;SDS011;31681;48.982;8.394;2023-06-14T14:43:06;5.53;;;3.50;;
45970;SDS011;31681;48.982;8.394;2023-06-14T14:45:31;5.15;;;3.60;;
45970;SDS011;31681;48.982;8.394;2023-06-14T14:47:56;3.50;;;3.00;;
45970;SDS011;31681;48.982;8.394;2023-06-14T14:50:22;5.25;;;3.28;;
45970;SDS011;31681;48.982;8.394;2023-06-14T14:52:49;3.92;;;3.47;;
45970;SDS011;31681;48.982;8.394;2023-06-14T14:55:15;4.75;;;3.28;;
45970;SDS011;31681;48.982;8.394;2023-06-14T14:57:40;3.85;;;3.00;;
45970;SDS011;31681;48.982;8.394;2023-06-14T15:00:06;5.72;;;3.10;;
45970;SDS011;31681;48.982;8.394;2023-06-14T15:02:31;4.18;;;3.28;;